Time;durP1;ratioP1;P1;durP2;ratioP2;P2;SDS_P1;SDS_P2;PMS_P1;PMS_P2;Temp;Humidity;BMP_temperature;BMP_pressure;BME280_temperature;BME280_humidity;BME280_pressure;Samples;Min_cycle;Max_cycle;Signal;HPM_P1;HPM_P2
2022/04/21 00:00:18;;;;;;;;;;;7.90;99.90;;;;;;5156938;27;19921;-74
2022/04/21 00:02:44;;;;;;;;;;;7.90;99.90;;;;;;5137896;27;19907;-74
2022/04/21 00:05:10;;;;;;;;;;;7.90;99.90;;;;;;5157304;27;19930;-74
2022/04/21 00:07:36;;;;;;;;;;;7.90;99.90;;;;;;5157189;27;19907;-74
2022/04/21 00:10:03;;;;;;;;;;;7.80;99.90;;;;;;5156102;27;19907;-74
2022/04/21 00:12:28;;;;;;;;;;;7.80;99.90;;;;;;5157040;27;19907;-74
2022/04/21 00:14:54;;;;;;;;;;;7.80;99.90;;;;;;5156255;27;19952;-74
2022/04/21 00:17:20;;;;;;;;;;;7.80;99.90;;;;;;5156196;27;19936;-73
2022/04/21 00:19:45;;;;;;;;;;;7.80;99.90;;;;;;5155370;27;20406;-73
2022/04/21 00:24:55;;;;;;;;;;;7.80;99.90;;;;;;5157316;27;20101;-73
2022/04/21 00:27:20;;;;;;;;;;;7.70;99.90;;;;;;5157873;27;19918;-73
2022/04/21 00:29:46;;;;;;;;;;;7.70;99.90;;;;;;5157109;27;20001;-73
2022/04/21 00:32:12;;;;;;;;;;;7.60;99.90;;;;;;5157295;27;19975;-73
2022/04/21 00:34:37;;;;;;;;;;;7.60;99.90;;;;;;5156497;27;19914;-73
2022/04/21 00:37:03;;;;;;;;;;;7.50;99.90;;;;;;5156934;27;20707;-73
2022/04/21 00:39:31;;;;;;;;;;;7.50;99.90;;;;;;5157056;27;19934;-73
2022/04/21 00:42:00;;;;;;;;;;;7.50;99.90;;;;;;5156157;27;20352;-73
2022/04/21 00:44:26;;;;;;;;;;;7.40;99.90;;;;;;5157053;27;19915;-73
2022/04/21 00:46:53;;;;;;;;;;;7.40;99.90;;;;;;5156379;27;19930;-73
2022/04/21 00:49:19;;;;;;;;;;;7.30;99.90;;;;;;5156918;27;20002;-73
2022/04/21 00:51:45;;;;;;;;;;;7.30;99.90;;;;;;5156471;27;19907;-73
2022/04/21 00:54:11;;;;;;;;;;;7.30;99.90;;;;;;5138421;27;19995;-73
2022/04/21 00:56:36;;;;;;;;;;;7.30;99.90;;;;;;5156607;27;19926;-73
2022/04/21 00:59:03;;;;;;;;;;;7.20;99.90;;;;;;5137562;27;20411;-73
2022/04/21 01:04:13;;;;;;;;;;;7.30;99.90;;;;;;5156771;27;19952;-74
2022/04/21 01:06:38;;;;;;;;;;;7.30;99.90;;;;;;5156920;27;19911;-74
2022/04/21 01:09:04;;;;;;;;;;;7.30;99.90;;;;;;5155744;27;19986;-74
2022/04/21 01:11:30;;;;;;;;;;;7.30;99.90;;;;;;5156270;27;19911;-74
2022/04/21 01:13:55;;;;;;;;;;;7.40;99.90;;;;;;5137273;27;19907;-74
2022/04/21 01:16:21;;;;;;;;;;;7.50;99.90;;;;;;5156344;27;19914;-74
2022/04/21 01:18:46;;;;;;;;;;;7.50;99.90;;;;;;5156085;27;19907;-74
2022/04/21 01:21:12;;;;;;;;;;;7.40;99.90;;;;;;5156361;27;19915;-74
2022/04/21 01:23:38;;;;;;;;;;;7.50;99.90;;;;;;5156337;27;20047;-74
2022/04/21 01:26:03;;;;;;;;;;;7.40;99.90;;;;;;5155562;27;19908;-74
2022/04/21 01:28:30;;;;;;;;;;;7.40;99.90;;;;;;5155826;27;19911;-74
2022/04/21 01:30:56;;;;;;;;;;;7.40;99.90;;;;;;5155565;27;19914;-74
2022/04/21 01:33:22;;;;;;;;;;;7.40;99.90;;;;;;5156496;27;19914;-74
2022/04/21 01:35:47;;;;;;;;;;;7.30;99.90;;;;;;5155356;27;20270;-73
2022/04/21 01:41:09;;;;;;;;;;;7.30;99.90;;;;;;5139477;27;19922;-73
2022/04/21 01:43:36;;;;;;;;;;;7.30;99.90;;;;;;5155823;27;19915;-73
2022/04/21 01:46:02;;;;;;;;;;;7.30;99.90;;;;;;5153781;27;20383;-73
2022/04/21 01:48:27;;;;;;;;;;;7.30;99.90;;;;;;5155617;27;19907;-73
2022/04/21 01:50:53;;;;;;;;;;;7.20;99.90;;;;;;5155121;27;20348;-73
2022/04/21 01:53:19;;;;;;;;;;;7.30;99.90;;;;;;5155628;27;19908;-73
2022/04/21 01:55:44;;;;;;;;;;;7.20;99.90;;;;;;5155559;27;19963;-73
2022/04/21 01:58:10;;;;;;;;;;;7.20;99.90;;;;;;5154983;27;19911;-73
2022/04/21 02:00:36;;;;;;;;;;;7.20;99.90;;;;;;5155604;27;19915;-73
2022/04/21 02:03:01;;;;;;;;;;;7.20;99.90;;;;;;5155126;27;20283;-73
2022/04/21 02:05:27;;;;;;;;;;;7.10;99.90;;;;;;5155298;27;19914;-73
2022/04/21 02:07:53;;;;;;;;;;;7.10;99.90;;;;;;5155030;27;19914;-73
2022/04/21 02:10:19;;;;;;;;;;;7.10;99.90;;;;;;5156060;27;19913;-73
2022/04/21 02:12:45;;;;;;;;;;;7.20;99.90;;;;;;5155460;27;19994;-72
2022/04/21 02:15:11;;;;;;;;;;;7.00;99.90;;;;;;5155189;27;19958;-73
2022/04/21 02:17:37;;;;;;;;;;;7.00;99.90;;;;;;5155220;27;19999;-73
2022/04/21 02:20:05;;;;;;;;;;;6.90;99.90;;;;;;5154373;27;19915;-73
2022/04/21 02:22:31;;;;;;;;;;;7.00;99.90;;;;;;5155164;27;19985;-73
2022/04/21 02:24:56;;;;;;;;;;;7.00;99.90;;;;;;5154726;27;19914;-73
2022/04/21 02:27:22;;;;;;;;;;;6.90;99.90;;;;;;5155494;27;20001;-73
2022/04/21 02:29:48;;;;;;;;;;;7.00;99.90;;;;;;5154984;27;19993;-73
2022/04/21 02:32:13;;;;;;;;;;;7.00;99.90;;;;;;5154432;27;19967;-73
2022/04/21 02:34:41;;;;;;;;;;;7.10;99.90;;;;;;5155125;27;19911;-73
2022/04/21 02:37:07;;;;;;;;;;;7.10;99.90;;;;;;5154404;27;19907;-73
2022/04/21 02:39:32;;;;;;;;;;;7.00;99.90;;;;;;5154968;27;19907;-73
2022/04/21 02:41:58;;;;;;;;;;;7.10;99.90;;;;;;5154138;27;19949;-73
2022/04/21 02:44:24;;;;;;;;;;;7.10;99.90;;;;;;5154837;27;19914;-73
2022/04/21 02:46:49;;;;;;;;;;;7.20;99.90;;;;;;5142368;27;19911;-73
2022/04/21 02:49:15;;;;;;;;;;;7.20;99.90;;;;;;5133269;27;20054;-73
2022/04/21 02:51:41;;;;;;;;;;;7.20;99.90;;;;;;5134202;27;19907;-73
2022/04/21 02:59:35;;;;;;;;;;;7.40;99.90;;;;;;5113002;28;19932;-73
2022/04/21 03:02:01;;;;;;;;;;;7.30;99.90;;;;;;5112834;28;19911;-73
2022/04/21 03:04:26;;;;;;;;;;;7.30;99.90;;;;;;5113455;28;20345;-73
2022/04/21 03:06:52;;;;;;;;;;;7.40;99.90;;;;;;5113377;28;20049;-73
2022/04/21 03:09:17;;;;;;;;;;;7.40;99.90;;;;;;5112981;28;19915;-73
2022/04/21 03:11:43;;;;;;;;;;;7.40;99.90;;;;;;5113311;28;20020;-73
2022/04/21 03:14:08;;;;;;;;;;;7.50;99.90;;;;;;5112427;28;20430;-73
2022/04/21 03:16:34;;;;;;;;;;;7.50;99.90;;;;;;5113212;28;19915;-73
2022/04/21 03:19:00;;;;;;;;;;;7.50;99.90;;;;;;5112465;28;19965;-73
2022/04/21 03:24:21;;;;;;;;;;;7.60;99.90;;;;;;5112376;28;19919;-73
2022/04/21 03:26:51;;;;;;;;;;;7.60;99.90;;;;;;5112885;28;19908;-73
2022/04/21 03:29:16;;;;;;;;;;;7.70;99.90;;;;;;5111964;28;19955;-73
2022/04/21 03:31:43;;;;;;;;;;;7.70;99.90;;;;;;5112682;28;20314;-73
2022/04/21 03:34:15;;;;;;;;;;;7.70;99.90;;;;;;5093698;28;19908;-73
2022/04/21 03:36:48;;;;;;;;;;;7.70;99.90;;;;;;5112643;28;19938;-74
2022/04/21 03:39:17;;;;;;;;;;;7.80;99.90;;;;;;5112232;28;19908;-74
2022/04/21 03:41:42;;;;;;;;;;;7.80;99.90;;;;;;5112712;28;20014;-74
2022/04/21 03:44:09;;;;;;;;;;;7.90;99.90;;;;;;5112708;28;19977;-74
2022/04/21 03:46:35;;;;;;;;;;;7.90;99.90;;;;;;5113018;28;20272;-74
2022/04/21 03:49:00;;;;;;;;;;;7.90;99.90;;;;;;5112014;28;19908;-74
2022/04/21 03:51:27;;;;;;;;;;;7.90;99.90;;;;;;5112932;28;19907;-74
2022/04/21 03:53:55;;;;;;;;;;;7.90;99.90;;;;;;5112947;28;20375;-73
2022/04/21 03:56:21;;;;;;;;;;;7.90;99.90;;;;;;5112369;28;20383;-73
2022/04/21 03:58:47;;;;;;;;;;;8.00;99.90;;;;;;5112743;28;20352;-73
2022/04/21 04:01:13;;;;;;;;;;;8.00;99.90;;;;;;5093859;28;19920;-74
2022/04/21 04:03:38;;;;;;;;;;;8.10;99.90;;;;;;5112861;28;19908;-73
2022/04/21 04:10:51;;;;;;;;;;;8.10;99.90;;;;;;5112280;28;19962;-73
2022/04/21 04:11:35;;;;;;;;;;;8.20;99.90;;;;;;5116385;28;19914;-74
2022/04/21 04:14:00;;;;;;;;;;;8.30;99.90;;;;;;5116240;28;20002;-74
2022/04/21 04:16:26;;;;;;;;;;;8.30;99.90;;;;;;5116141;28;19914;-74
2022/04/21 04:18:52;;;;;;;;;;;8.40;99.90;;;;;;5116330;28;19912;-74
2022/04/21 04:21:17;;;;;;;;;;;8.50;99.90;;;;;;5115490;28;20521;-74
2022/04/21 04:23:43;;;;;;;;;;;8.50;99.90;;;;;;5115937;28;19954;-74
2022/04/21 04:26:08;;;;;;;;;;;8.60;99.90;;;;;;5097428;28;19908;-74
2022/04/21 04:28:34;;;;;;;;;;;8.70;99.90;;;;;;5116185;28;19952;-74
2022/04/21 04:30:59;;;;;;;;;;;8.70;99.90;;;;;;5115527;28;19925;-74
2022/04/21 04:33:25;;;;;;;;;;;8.90;99.90;;;;;;5115890;28;19908;-74
2022/04/21 04:35:51;;;;;;;;;;;8.90;99.90;;;;;;5116117;28;19943;-74
2022/04/21 04:38:16;;;;;;;;;;;9.00;99.90;;;;;;5115306;28;19938;-74
2022/04/21 04:40:42;;;;;;;;;;;9.00;99.90;;;;;;5115905;28;20325;-74
2022/04/21 04:43:07;;;;;;;;;;;9.10;99.90;;;;;;5115473;28;19912;-74
2022/04/21 04:48:17;;;;;;;;;;;9.20;99.90;;;;;;5115022;28;19996;-74
2022/04/21 04:50:42;;;;;;;;;;;9.20;99.90;;;;;;5115632;28;19943;-74
2022/04/21 04:53:09;;;;;;;;;;;9.30;99.90;;;;;;5115190;28;19930;-74
2022/04/21 04:55:35;;;;;;;;;;;9.30;99.90;;;;;;5115414;28;19927;-74
2022/04/21 04:58:01;;;;;;;;;;;9.40;99.90;;;;;;5114840;28;20453;-74
2022/04/21 05:00:28;;;;;;;;;;;9.40;99.90;;;;;;5115287;28;19916;-74
2022/04/21 05:02:53;;;;;;;;;;;9.40;99.90;;;;;;5114966;28;19912;-73
2022/04/21 05:05:19;;;;;;;;;;;9.40;99.90;;;;;;5114945;28;19918;-74
2022/04/21 05:07:45;;;;;;;;;;;9.50;99.90;;;;;;5115374;28;19950;-74
2022/04/21 05:10:10;;;;;;;;;;;9.50;99.90;;;;;;5114838;28;19947;-74
2022/04/21 05:12:36;;;;;;;;;;;9.50;99.90;;;;;;5115363;28;19915;-73
2022/04/21 05:15:01;;;;;;;;;;;9.50;99.90;;;;;;5115174;28;19908;-74
2022/04/21 05:17:27;;;;;;;;;;;9.50;99.90;;;;;;5114756;28;20367;-74
2022/04/21 05:19:53;;;;;;;;;;;9.50;99.90;;;;;;5114867;28;19908;-74
2022/04/21 05:22:25;;;;;;;;;;;9.50;99.90;;;;;;5113656;28;19915;-74
2022/04/21 05:24:51;;;;;;;;;;;9.60;99.90;;;;;;5115349;28;19999;-74
2022/04/21 05:27:17;;;;;;;;;;;9.60;99.90;;;;;;5114197;28;19915;-75
2022/04/21 05:32:30;;;;;;;;;;;9.60;99.90;;;;;;5114084;28;20360;-74
2022/04/21 05:34:56;;;;;;;;;;;9.60;99.90;;;;;;5114627;28;20006;-74
2022/04/21 05:37:21;;;;;;;;;;;9.60;99.90;;;;;;5113919;28;19944;-74
2022/04/21 05:39:47;;;;;;;;;;;9.60;99.90;;;;;;5114748;28;19908;-74
2022/04/21 05:42:21;;;;;;;;;;;9.60;99.90;;;;;;5113886;28;19915;-74
2022/04/21 05:44:46;;;;;;;;;;;9.60;99.90;;;;;;5096651;28;19908;-74
2022/04/21 05:47:12;;;;;;;;;;;9.70;99.90;;;;;;5113565;28;19931;-74
2022/04/21 05:49:38;;;;;;;;;;;9.70;99.90;;;;;;5096355;28;19908;-74
2022/04/21 05:52:06;;;;;;;;;;;9.80;99.90;;;;;;5114648;28;19908;-74
2022/04/21 05:54:32;;;;;;;;;;;9.80;99.90;;;;;;5114277;28;19914;-74
2022/04/21 05:56:58;;;;;;;;;;;9.90;99.90;;;;;;5114682;28;20275;-74
2022/04/21 05:59:23;;;;;;;;;;;10.00;99.90;;;;;;5113617;28;19907;-74
2022/04/21 06:01:49;;;;;;;;;;;10.00;99.90;;;;;;5113992;28;20392;-74
2022/04/21 06:04:14;;;;;;;;;;;10.00;99.90;;;;;;5113386;28;20002;-74
2022/04/21 06:06:40;;;;;;;;;;;10.10;99.90;;;;;;5114265;28;19908;-73
2022/04/21 06:09:05;;;;;;;;;;;10.20;99.90;;;;;;5113944;28;20383;-74
2022/04/21 06:11:33;;;;;;;;;;;10.20;99.90;;;;;;5114138;28;19915;-74
2022/04/21 06:13:58;;;;;;;;;;;10.30;99.90;;;;;;5113779;28;19912;-74
2022/04/21 06:16:24;;;;;;;;;;;10.30;99.90;;;;;;5113489;28;19914;-74
2022/04/21 06:18:50;;;;;;;;;;;10.40;99.90;;;;;;5113935;28;19919;-74
2022/04/21 06:21:16;;;;;;;;;;;10.40;99.90;;;;;;5113093;28;20015;-74
2022/04/21 06:23:41;;;;;;;;;;;10.40;99.90;;;;;;5113970;28;20007;-74
2022/04/21 06:26:07;;;;;;;;;;;10.50;99.90;;;;;;5113456;28;19908;-74
2022/04/21 06:28:35;;;;;;;;;;;10.50;99.90;;;;;;5113681;28;19912;-74
2022/04/21 06:31:01;;;;;;;;;;;10.60;99.90;;;;;;5113749;28;20268;-74
2022/04/21 06:33:29;;;;;;;;;;;10.60;99.90;;;;;;5094448;28;19908;-74
2022/04/21 06:35:55;;;;;;;;;;;10.60;99.90;;;;;;5113303;28;19960;-74
2022/04/21 06:38:20;;;;;;;;;;;10.70;99.90;;;;;;5113139;28;19912;-74
2022/04/21 06:40:46;;;;;;;;;;;10.80;99.90;;;;;;5113254;28;19922;-74
2022/04/21 06:48:40;;;;;;;;;;;11.30;99.90;;;;;;5113534;28;20448;-74
2022/04/21 06:51:06;;;;;;;;;;;11.50;99.90;;;;;;5113357;28;19959;-74
2022/04/21 06:53:34;;;;;;;;;;;11.60;99.90;;;;;;5113024;28;19950;-74
2022/04/21 06:56:00;;;;;;;;;;;11.60;99.90;;;;;;5112920;28;20018;-74
2022/04/21 06:58:26;;;;;;;;;;;11.70;99.90;;;;;;5112571;28;19943;-74
2022/04/21 07:00:51;;;;;;;;;;;11.80;99.90;;;;;;5113291;28;19938;-74
2022/04/21 07:03:17;;;;;;;;;;;12.00;99.90;;;;;;5112436;28;19919;-74
2022/04/21 07:05:42;;;;;;;;;;;12.10;99.90;;;;;;5113532;28;19908;-74
2022/04/21 07:08:08;;;;;;;;;;;12.10;99.90;;;;;;5113335;28;20253;-74
2022/04/21 07:10:34;;;;;;;;;;;12.20;99.90;;;;;;5112746;28;19908;-74
2022/04/21 07:13:07;;;;;;;;;;;12.30;99.90;;;;;;5113099;28;19912;-74
2022/04/21 07:15:32;;;;;;;;;;;12.40;99.90;;;;;;5112968;28;19915;-73
2022/04/21 07:17:58;;;;;;;;;;;12.50;99.90;;;;;;5113224;28;19908;-73
2022/04/21 07:20:23;;;;;;;;;;;12.50;99.90;;;;;;5113481;28;19919;-74
2022/04/21 07:22:49;;;;;;;;;;;12.20;99.90;;;;;;5121798;28;20250;-73
2022/04/21 07:25:15;;;;;;;;;;;12.30;99.90;;;;;;5112460;28;19914;-73
2022/04/21 07:27:40;;;;;;;;;;;12.30;99.90;;;;;;5113467;28;19947;-74
2022/04/21 07:30:06;;;;;;;;;;;12.40;99.90;;;;;;5112843;28;20022;-73
2022/04/21 07:32:32;;;;;;;;;;;12.60;99.90;;;;;;5112311;28;19903;-73
2022/04/21 07:34:57;;;;;;;;;;;12.70;99.90;;;;;;5112836;28;19915;-73
2022/04/21 07:37:23;;;;;;;;;;;12.70;99.90;;;;;;5112699;28;19915;-73
2022/04/21 07:39:48;;;;;;;;;;;12.90;99.90;;;;;;5112746;28;19908;-74
2022/04/21 07:42:14;;;;;;;;;;;13.00;99.90;;;;;;5112316;28;20275;-74
2022/04/21 07:44:40;;;;;;;;;;;13.10;99.90;;;;;;5114059;28;19911;-74
2022/04/21 07:47:06;;;;;;;;;;;13.20;99.90;;;;;;5116848;28;20276;-74
2022/04/21 07:49:48;;;;;;;;;;;13.10;99.90;;;;;;5116486;28;19912;-74
2022/04/21 07:55:10;;;;;;;;;;;13.10;99.90;;;;;;5121289;27;19926;-74
2022/04/21 07:57:36;;;;;;;;;;;13.20;99.90;;;;;;5137161;27;19943;-74
2022/04/21 08:00:03;;;;;;;;;;;13.20;99.90;;;;;;5137535;27;19971;-74
2022/04/21 08:02:29;;;;;;;;;;;13.10;99.90;;;;;;5136873;27;19918;-74
2022/04/21 08:04:54;;;;;;;;;;;13.10;99.90;;;;;;5137144;27;20250;-74
2022/04/21 08:07:20;;;;;;;;;;;13.20;99.90;;;;;;5136604;27;19907;-74
2022/04/21 08:09:45;;;;;;;;;;;13.30;99.90;;;;;;5137385;27;19908;-74
2022/04/21 08:12:11;;;;;;;;;;;13.20;99.90;;;;;;5136998;27;19908;-74
2022/04/21 08:14:37;;;;;;;;;;;13.20;99.90;;;;;;5136325;27;19915;-74
2022/04/21 08:17:03;;;;;;;;;;;13.20;99.90;;;;;;5136590;27;19907;-74
2022/04/21 08:19:29;;;;;;;;;;;13.20;99.90;;;;;;5136252;27;19911;-74
2022/04/21 08:21:54;;;;;;;;;;;13.20;99.90;;;;;;5136969;27;19915;-74
2022/04/21 08:32:46;;;;;;;;;;;13.40;99.90;;;;;;5104121;27;19999;-73
2022/04/21 08:35:13;;;;;;;;;;;13.50;99.90;;;;;;5136339;27;19914;-73
2022/04/21 08:37:40;;;;;;;;;;;13.40;99.90;;;;;;5135553;27;19964;-73
2022/04/21 08:40:06;;;;;;;;;;;13.40;99.90;;;;;;5136298;27;19967;-74
2022/04/21 08:42:35;;;;;;;;;;;13.40;99.90;;;;;;5135930;27;19908;-74
2022/04/21 08:45:01;;;;;;;;;;;13.40;99.90;;;;;;5136468;27;19907;-73
2022/04/21 08:47:31;;;;;;;;;;;13.40;99.90;;;;;;5135660;27;20359;-73
2022/04/21 08:50:01;;;;;;;;;;;13.30;99.90;;;;;;5136350;27;19952;-73
2022/04/21 08:52:28;;;;;;;;;;;13.40;99.90;;;;;;5135572;27;19907;-74
2022/04/21 08:54:54;;;;;;;;;;;13.30;99.90;;;;;;5135663;27;19953;-73
2022/04/21 08:57:19;;;;;;;;;;;13.30;99.90;;;;;;5134994;27;19907;-75
2022/04/21 08:59:45;;;;;;;;;;;13.30;99.90;;;;;;5136159;27;19907;-74
2022/04/21 09:02:10;;;;;;;;;;;13.30;99.90;;;;;;5135652;27;20002;-74
2022/04/21 09:04:36;;;;;;;;;;;13.30;99.90;;;;;;5135412;27;20018;-75
2022/04/21 09:07:15;;;;;;;;;;;13.50;99.90;;;;;;5136002;27;19907;-74
2022/04/21 09:09:58;;;;;;;;;;;13.50;99.90;;;;;;5134819;27;19955;-75
2022/04/21 09:12:24;;;;;;;;;;;13.50;99.90;;;;;;5135435;27;20014;-75
2022/04/21 09:14:49;;;;;;;;;;;13.50;99.90;;;;;;5135691;27;19924;-75
2022/04/21 09:17:15;;;;;;;;;;;13.40;99.90;;;;;;5117143;27;19908;-74
2022/04/21 09:19:54;;;;;;;;;;;13.60;99.90;;;;;;5134999;27;19907;-74
2022/04/21 09:22:20;;;;;;;;;;;13.80;99.90;;;;;;5135292;27;19927;-74
2022/04/21 09:24:45;;;;;;;;;;;13.80;99.90;;;;;;5116807;27;19944;-74
2022/04/21 09:27:11;;;;;;;;;;;13.90;99.90;;;;;;5135531;27;19907;-75
2022/04/21 09:29:37;;;;;;;;;;;13.90;99.90;;;;;;5134876;27;20362;-75
2022/04/21 09:32:04;;;;;;;;;;;13.90;99.90;;;;;;5135358;27;19907;-74
2022/04/21 09:34:30;;;;;;;;;;;13.90;99.90;;;;;;5134975;27;19918;-74
2022/04/21 09:36:59;;;;;;;;;;;13.70;99.90;;;;;;5135230;27;20279;-75
2022/04/21 09:39:26;;;;;;;;;;;13.70;99.90;;;;;;5134647;27;19907;-75
2022/04/21 09:41:53;;;;;;;;;;;13.80;99.90;;;;;;5134648;27;20364;-75
2022/04/21 09:47:05;;;;;;;;;;;13.70;99.90;;;;;;5135205;27;19914;-75
2022/04/21 09:49:43;;;;;;;;;;;13.70;99.90;;;;;;5134396;27;20011;-75
2022/04/21 09:52:09;;;;;;;;;;;13.60;99.90;;;;;;5134579;27;19919;-75
2022/04/21 09:54:35;;;;;;;;;;;13.50;99.90;;;;;;5115691;27;19915;-75
2022/04/21 09:57:01;;;;;;;;;;;13.70;99.90;;;;;;5134975;27;20252;-75
2022/04/21 09:59:26;;;;;;;;;;;13.70;99.90;;;;;;5134206;27;20002;-75
2022/04/21 10:01:53;;;;;;;;;;;13.80;99.90;;;;;;5115650;27;20410;-74
2022/04/21 10:04:19;;;;;;;;;;;13.70;99.90;;;;;;5116449;27;20303;-75
2022/04/21 10:06:45;;;;;;;;;;;13.70;99.90;;;;;;5133690;27;19908;-75
2022/04/21 10:09:12;;;;;;;;;;;13.80;99.90;;;;;;5134229;27;19965;-75
2022/04/21 10:11:41;;;;;;;;;;;13.80;99.90;;;;;;5115612;27;19955;-75
2022/04/21 10:14:07;;;;;;;;;;;13.80;99.90;;;;;;5134604;27;20010;-74
2022/04/21 10:16:32;;;;;;;;;;;13.90;99.90;;;;;;5134088;27;20015;-75
2022/04/21 10:18:59;;;;;;;;;;;13.80;99.90;;;;;;5115806;27;19912;-75
2022/04/21 10:21:32;;;;;;;;;;;13.70;99.90;;;;;;5133813;27;19998;-75
2022/04/21 10:23:58;;;;;;;;;;;13.60;99.90;;;;;;5134733;27;19911;-75
2022/04/21 10:26:40;;;;;;;;;;;13.50;99.90;;;;;;5134304;27;19916;-75
2022/04/21 10:29:09;;;;;;;;;;;13.40;99.90;;;;;;5134313;27;19908;-75
2022/04/21 10:31:38;;;;;;;;;;;13.40;99.90;;;;;;5133529;27;19908;-75
2022/04/21 10:34:04;;;;;;;;;;;13.30;99.90;;;;;;5134313;27;19914;-75
2022/04/21 10:36:33;;;;;;;;;;;13.50;99.90;;;;;;5133600;27;19916;-75
2022/04/21 10:39:31;;;;;;;;;;;13.50;99.90;;;;;;5133940;27;19915;-74
2022/04/21 10:42:12;;;;;;;;;;;13.40;99.90;;;;;;5077086;27;19915;-75
2022/04/21 10:44:42;;;;;;;;;;;13.50;99.90;;;;;;5133064;27;20361;-75
2022/04/21 10:47:26;;;;;;;;;;;13.40;99.90;;;;;;5134180;27;19907;-75
2022/04/21 10:50:12;;;;;;;;;;;13.40;99.90;;;;;;5133799;27;20002;-75
2022/04/21 10:57:50;;;;;;;;;;;13.30;99.90;;;;;;5132932;27;20395;-75
2022/04/21 11:00:28;;;;;;;;;;;13.40;99.90;;;;;;5133324;27;20299;-75
2022/04/21 11:03:00;;;;;;;;;;;13.20;99.90;;;;;;5133621;27;19931;-75
2022/04/21 11:05:30;;;;;;;;;;;13.20;99.90;;;;;;5133715;27;19907;-75
2022/04/21 11:07:57;;;;;;;;;;;13.30;99.90;;;;;;5133964;28;20360;-75
2022/04/21 11:10:27;;;;;;;;;;;13.40;99.90;;;;;;5133089;28;20404;-75
2022/04/21 11:12:52;;;;;;;;;;;13.50;99.90;;;;;;5138358;27;19907;-75
2022/04/21 11:15:37;;;;;;;;;;;13.70;99.90;;;;;;5142106;27;20387;-75
2022/04/21 11:18:10;;;;;;;;;;;13.80;99.90;;;;;;5143201;27;19915;-75
2022/04/21 11:20:42;;;;;;;;;;;13.80;99.90;;;;;;5146068;27;19960;-75
2022/04/21 11:23:09;;;;;;;;;;;13.60;99.90;;;;;;5149982;27;20359;-75
2022/04/21 11:25:35;;;;;;;;;;;13.50;99.90;;;;;;5148027;27;20017;-75
2022/04/21 11:28:01;;;;;;;;;;;13.50;99.90;;;;;;5147013;27;19908;-76
2022/04/21 11:30:28;;;;;;;;;;;13.50;99.90;;;;;;5146513;27;20276;-75
2022/04/21 11:32:53;;;;;;;;;;;13.40;99.90;;;;;;5145784;27;20366;-75
2022/04/21 11:35:22;;;;;;;;;;;13.50;99.90;;;;;;5148358;27;19907;-75
2022/04/21 11:37:49;;;;;;;;;;;13.50;99.90;;;;;;5144492;27;19967;-75
2022/04/21 11:40:20;;;;;;;;;;;13.40;99.90;;;;;;5145940;27;20313;-75
2022/04/21 11:42:47;;;;;;;;;;;13.30;99.90;;;;;;5151344;27;20393;-76
2022/04/21 11:45:17;;;;;;;;;;;13.30;99.90;;;;;;5158239;27;19907;-75
2022/04/21 11:47:42;;;;;;;;;;;13.40;99.90;;;;;;5157478;27;19943;-75
2022/04/21 11:50:08;;;;;;;;;;;13.40;99.90;;;;;;5158270;27;19942;-75
2022/04/21 11:52:34;;;;;;;;;;;13.50;99.90;;;;;;5157335;27;19952;-75
2022/04/21 11:55:00;;;;;;;;;;;13.60;99.90;;;;;;5157636;27;19926;-75
2022/04/21 11:57:42;;;;;;;;;;;13.50;99.90;;;;;;5157657;27;19957;-75
2022/04/21 12:00:08;;;;;;;;;;;13.60;99.90;;;;;;5157565;27;19914;-76
2022/04/21 12:08:03;;;;;;;;;;;13.30;99.90;;;;;;5157647;27;19999;-76
2022/04/21 12:10:29;;;;;;;;;;;13.40;99.90;;;;;;5157020;27;20335;-75
2022/04/21 12:12:55;;;;;;;;;;;13.50;99.90;;;;;;5156799;27;19943;-75
2022/04/21 12:15:31;;;;;;;;;;;13.40;99.90;;;;;;5157386;27;19913;-75
2022/04/21 12:18:00;;;;;;;;;;;13.30;99.90;;;;;;5156629;27;20375;-75
2022/04/21 12:20:27;;;;;;;;;;;13.40;99.90;;;;;;5157121;27;19915;-75
2022/04/21 12:22:53;;;;;;;;;;;13.40;99.90;;;;;;5156847;27;20465;-76
2022/04/21 12:25:19;;;;;;;;;;;13.30;99.90;;;;;;5157338;27;19921;-75
2022/04/21 12:27:45;;;;;;;;;;;13.50;99.90;;;;;;5156655;27;20348;-75
2022/04/21 12:30:15;;;;;;;;;;;13.60;99.90;;;;;;5156098;27;19907;-75
2022/04/21 12:32:47;;;;;;;;;;;13.60;99.90;;;;;;5156534;27;20359;-75
2022/04/21 12:35:13;;;;;;;;;;;13.70;99.90;;;;;;5156959;27;20005;-75
2022/04/21 12:37:40;;;;;;;;;;;13.90;99.90;;;;;;5156927;27;19914;-75
2022/04/21 12:40:06;;;;;;;;;;;13.90;99.90;;;;;;5157273;27;19957;-75
2022/04/21 12:42:32;;;;;;;;;;;13.90;99.90;;;;;;5157133;27;19952;-76
2022/04/21 12:44:58;;;;;;;;;;;13.80;99.90;;;;;;5156432;27;19915;-75
2022/04/21 12:47:24;;;;;;;;;;;13.60;99.90;;;;;;5157010;27;19914;-75
2022/04/21 12:49:53;;;;;;;;;;;13.50;99.90;;;;;;5137826;27;20331;-75
2022/04/21 12:52:37;;;;;;;;;;;13.50;99.90;;;;;;5138318;27;20299;-75
2022/04/21 12:55:22;;;;;;;;;;;13.70;99.90;;;;;;5138223;27;20007;-75
2022/04/21 12:58:06;;;;;;;;;;;13.80;99.90;;;;;;5156177;27;19911;-74
2022/04/21 13:00:41;;;;;;;;;;;13.70;99.90;;;;;;5137282;27;20367;-74
2022/04/21 13:03:08;;;;;;;;;;;13.80;99.90;;;;;;5156648;27;19907;-74
2022/04/21 13:05:43;;;;;;;;;;;13.80;99.90;;;;;;5156312;27;19907;-74
2022/04/21 13:08:09;;;;;;;;;;;13.80;99.90;;;;;;5156577;27;19907;-74
2022/04/21 13:10:34;;;;;;;;;;;13.80;99.90;;;;;;5137963;27;19914;-74
2022/04/21 13:13:00;;;;;;;;;;;13.90;99.90;;;;;;5155255;27;20351;-73
2022/04/21 13:15:25;;;;;;;;;;;13.90;99.90;;;;;;5156426;27;19930;-73
2022/04/21 13:17:51;;;;;;;;;;;14.00;99.90;;;;;;5155951;27;19929;-74
2022/04/21 13:21:52;;;;;;;;;;;14.00;99.90;;;;;;5156434;27;20006;-75
2022/04/21 13:23:02;;;;;;;;;;;14.00;99.90;;;;;;5155630;27;20345;-75
2022/04/21 13:25:28;;;;;;;;;;;14.00;99.90;;;;;;5156064;27;19952;-75
2022/04/21 13:27:54;;;;;;;;;;;13.70;99.90;;;;;;5155584;27;20327;-75
2022/04/21 13:30:20;;;;;;;;;;;13.80;99.90;;;;;;5156170;27;19911;-75
2022/04/21 13:35:29;;;;;;;;;;;13.90;99.90;;;;;;5155914;27;19918;-75
2022/04/21 13:37:55;;;;;;;;;;;13.80;99.90;;;;;;5155358;27;19907;-75
2022/04/21 13:40:20;;;;;;;;;;;13.80;99.90;;;;;;5155658;27;19915;-75
2022/04/21 13:42:46;;;;;;;;;;;13.90;99.90;;;;;;5146954;27;19919;-75
2022/04/21 13:45:12;;;;;;;;;;;14.00;99.90;;;;;;5141739;27;20002;-75
2022/04/21 13:47:38;;;;;;;;;;;14.20;99.90;;;;;;5155222;27;19907;-75
2022/04/21 13:50:04;;;;;;;;;;;14.30;99.90;;;;;;5154502;27;19907;-76
2022/04/21 13:52:29;;;;;;;;;;;14.30;99.90;;;;;;5155538;27;20372;-76
2022/04/21 13:54:55;;;;;;;;;;;14.50;99.90;;;;;;5154764;27;20008;-75
2022/04/21 13:57:21;;;;;;;;;;;14.50;99.90;;;;;;5146396;27;19985;-75
2022/04/21 13:59:46;;;;;;;;;;;14.60;99.90;;;;;;5141425;27;19908;-76
2022/04/21 14:02:12;;;;;;;;;;;14.50;99.90;;;;;;5126118;27;19915;-76
2022/04/21 14:04:38;;;;;;;;;;;14.60;99.90;;;;;;5145191;27;20301;-75
2022/04/21 14:07:04;;;;;;;;;;;14.60;99.90;;;;;;5142860;27;20371;-76
2022/04/21 14:09:29;;;;;;;;;;;14.70;99.90;;;;;;5144509;27;19911;-76
2022/04/21 14:11:55;;;;;;;;;;;14.90;99.90;;;;;;5143585;27;19953;-76
2022/04/21 14:14:21;;;;;;;;;;;14.90;99.90;;;;;;5143748;27;19908;-76
2022/04/21 14:16:46;;;;;;;;;;;14.90;99.90;;;;;;5139145;27;19945;-76
2022/04/21 14:19:12;;;;;;;;;;;15.00;99.90;;;;;;5134212;27;19907;-76
2022/04/21 14:21:37;;;;;;;;;;;14.90;99.90;;;;;;5134269;27;19916;-76
2022/04/21 14:24:03;;;;;;;;;;;14.80;99.90;;;;;;5133753;27;19912;-76
2022/04/21 14:26:29;;;;;;;;;;;14.80;99.90;;;;;;5134429;27;19911;-76
2022/04/21 14:28:55;;;;;;;;;;;14.90;99.90;;;;;;5141690;27;20288;-76
2022/04/21 14:31:21;;;;;;;;;;;14.90;99.90;;;;;;5126682;27;19975;-76
2022/04/21 14:33:47;;;;;;;;;;;14.90;99.90;;;;;;5121269;27;19908;-76
2022/04/21 14:36:12;;;;;;;;;;;14.80;99.90;;;;;;5144198;27;19907;-75
2022/04/21 14:44:07;;;;;;;;;;;14.30;99.90;;;;;;5142854;27;20283;-76
2022/04/21 14:46:43;;;;;;;;;;;14.40;99.90;;;;;;5143938;27;19990;-76
2022/04/21 14:49:09;;;;;;;;;;;14.30;99.90;;;;;;5136236;27;19914;-76
2022/04/21 14:51:35;;;;;;;;;;;14.30;99.90;;;;;;5114014;27;19998;-76
2022/04/21 14:54:01;;;;;;;;;;;14.30;99.90;;;;;;5130207;27;19914;-77
2022/04/21 14:56:26;;;;;;;;;;;14.20;99.90;;;;;;5133082;27;19920;-76
2022/04/21 14:58:52;;;;;;;;;;;14.10;99.90;;;;;;5114686;28;20416;-76
2022/04/21 15:01:18;;;;;;;;;;;14.20;99.90;;;;;;5133505;27;19942;-76
2022/04/21 15:03:44;;;;;;;;;;;14.30;99.90;;;;;;5133315;27;20002;-77
2022/04/21 15:06:09;;;;;;;;;;;14.40;99.90;;;;;;5133303;27;19919;-77
2022/04/21 15:08:35;;;;;;;;;;;14.50;99.90;;;;;;5133069;28;19907;-77
2022/04/21 15:11:01;;;;;;;;;;;14.70;99.90;;;;;;5133134;28;20003;-77
2022/04/21 15:13:27;;;;;;;;;;;14.90;99.90;;;;;;5133743;28;19908;-76
2022/04/21 15:15:53;;;;;;;;;;;15.00;99.90;;;;;;5140351;27;19959;-76
2022/04/21 15:18:19;;;;;;;;;;;15.20;99.90;;;;;;5143367;27;19923;-77
2022/04/21 15:20:44;;;;;;;;;;;15.40;99.90;;;;;;5139920;27;20399;-77
2022/04/21 15:23:13;;;;;;;;;;;15.50;99.90;;;;;;5142071;27;19976;-77